Terminal Aerodrome Forecast
Issued by NWS Cleveland, OH

Home | Current Version | Previous Version | Text Only | Print | Product List | Glossary Off
Versions: 1 2 3 4 5 6 7 8 9 10 11 12 13 14 15 16 17 18 19 20 21 22 23 24

757
FTUS41 KCLE 161728
TAFCLE
TAF
KCLE 161728Z 1618/1724 29009KT P6SM -SHSN OVC025
      TEMPO 1618/1620 -SHSN OVC015
     FM162100 29009KT P6SM BKN070
     FM162200 VRB03KT P6SM BKN070
     FM170700 14004KT P6SM BKN070
     FM171000 18008KT P6SM BKN250=

USA.gov is the U.S. government's official web portal to all federal, state and local government web resources and services.